sensor_id;sensor_type;location;lat;lon;timestamp;pressure;altitude;pressure_sealevel;temperature;humidity
61205;BME280;47068;55.780;37.520;2022-09-13T00:00:34;99970.97;;;12.17;55.06
61205;BME280;47068;55.780;37.520;2022-09-13T00:02:59;99966.97;;;12.13;55.63
61205;BME280;47068;55.780;37.520;2022-09-13T00:05:25;99964.81;;;12.09;55.87
61205;BME280;47068;55.780;37.520;2022-09-13T00:07:51;99947.13;;;11.92;55.72
61205;BME280;47068;55.780;37.520;2022-09-13T00:10:16;99962.66;;;11.96;55.77
61205;BME280;47068;55.780;37.520;2022-09-13T00:12:42;99965.31;;;11.88;56.04
61205;BME280;47068;55.780;37.520;2022-09-13T00:15:08;99962.63;;;11.80;56.65
61205;BME280;47068;55.780;37.520;2022-09-13T00:17:34;99964.13;;;11.74;56.62
61205;BME280;47068;55.780;37.520;2022-09-13T00:20:00;99949.09;;;11.65;56.81
61205;BME280;47068;55.780;37.520;2022-09-13T00:22:25;99953.41;;;11.66;56.94
61205;BME280;47068;55.780;37.520;2022-09-13T00:24:51;99943.41;;;11.60;57.42
61205;BME280;47068;55.780;37.520;2022-09-13T00:27:17;99954.25;;;11.67;56.85
61205;BME280;47068;55.780;37.520;2022-09-13T00:29:42;99954.72;;;11.62;57.35
61205;BME280;47068;55.780;37.520;2022-09-13T00:32:08;99952.44;;;11.67;56.72
61205;BME280;47068;55.780;37.520;2022-09-13T00:34:33;99919.56;;;11.51;56.80
61205;BME280;47068;55.780;37.520;2022-09-13T00:36:59;99934.91;;;11.65;57.26
61205;BME280;47068;55.780;37.520;2022-09-13T00:39:24;99943.91;;;11.64;57.02
61205;BME280;47068;55.780;37.520;2022-09-13T00:41:50;99949.91;;;11.66;56.83
61205;BME280;47068;55.780;37.520;2022-09-13T00:50:04;99953.00;;;11.29;58.18
61205;BME280;47068;55.780;37.520;2022-09-13T00:52:34;99953.16;;;11.19;58.49
61205;BME280;47068;55.780;37.520;2022-09-13T00:55:07;99946.28;;;11.09;59.13
61205;BME280;47068;55.780;37.520;2022-09-13T00:57:35;99929.09;;;10.95;59.34
61205;BME280;47068;55.780;37.520;2022-09-13T01:00:07;99948.09;;;11.08;59.09
61205;BME280;47068;55.780;37.520;2022-09-13T01:02:43;99896.56;;;10.75;58.75
61205;BME280;47068;55.780;37.520;2022-09-13T01:05:10;99953.03;;;10.95;58.90
61205;BME280;47068;55.780;37.520;2022-09-13T01:07:36;99946.91;;;11.02;59.35
61205;BME280;47068;55.780;37.520;2022-09-13T01:10:03;99949.03;;;10.91;59.57
61205;BME280;47068;55.780;37.520;2022-09-13T01:12:40;99948.66;;;10.86;59.80
61205;BME280;47068;55.780;37.520;2022-09-13T01:15:09;99884.94;;;10.42;60.02
61205;BME280;47068;55.780;37.520;2022-09-13T01:17:35;99920.06;;;10.54;60.20
61205;BME280;47068;55.780;37.520;2022-09-13T01:20:02;99938.22;;;10.58;60.67
61205;BME280;47068;55.780;37.520;2022-09-13T01:30:40;99953.25;;;10.68;60.21
61205;BME280;47068;55.780;37.520;2022-09-13T01:33:17;99951.06;;;10.63;60.85
61205;BME280;47068;55.780;37.520;2022-09-13T01:43:56;99962.63;;;10.54;60.94
61205;BME280;47068;55.780;37.520;2022-09-13T01:48:59;99955.78;;;10.51;60.73
61205;BME280;47068;55.780;37.520;2022-09-13T01:51:33;99955.16;;;10.49;60.95
61205;BME280;47068;55.780;37.520;2022-09-13T01:54:20;99954.81;;;10.52;61.04
61205;BME280;47068;55.780;37.520;2022-09-13T01:57:16;99943.88;;;10.55;60.53
61205;BME280;47068;55.780;37.520;2022-09-13T02:02:20;99944.50;;;10.49;61.04
61205;BME280;47068;55.780;37.520;2022-09-13T02:04:51;99941.34;;;10.54;61.08
61205;BME280;47068;55.780;37.520;2022-09-13T02:07:23;99944.75;;;10.64;60.46
61205;BME280;47068;55.780;37.520;2022-09-13T02:09:57;99942.94;;;10.64;60.55
61205;BME280;47068;55.780;37.520;2022-09-13T02:12:27;99936.94;;;10.62;60.23
61205;BME280;47068;55.780;37.520;2022-09-13T02:15:06;99874.84;;;10.20;60.63
61205;BME280;47068;55.780;37.520;2022-09-13T02:17:38;99935.41;;;10.60;60.40
61205;BME280;47068;55.780;37.520;2022-09-13T02:20:12;99936.78;;;10.64;60.67
61205;BME280;47068;55.780;37.520;2022-09-13T02:22:47;99900.75;;;10.44;60.38
61205;BME280;47068;55.780;37.520;2022-09-13T02:25:17;99936.38;;;10.59;60.52
61205;BME280;47068;55.780;37.520;2022-09-13T02:27:52;99939.69;;;10.53;60.49
61205;BME280;47068;55.780;37.520;2022-09-13T02:30:19;99932.66;;;10.44;60.87
61205;BME280;47068;55.780;37.520;2022-09-13T02:32:47;99929.47;;;10.40;61.24
61205;BME280;47068;55.780;37.520;2022-09-13T02:35:19;99923.66;;;10.37;61.31
61205;BME280;47068;55.780;37.520;2022-09-13T02:37:57;99931.44;;;10.38;60.98
61205;BME280;47068;55.780;37.520;2022-09-13T02:40:29;99917.78;;;10.33;61.42
61205;BME280;47068;55.780;37.520;2022-09-13T02:43:30;99926.91;;;10.31;61.27
61205;BME280;47068;55.780;37.520;2022-09-13T02:49:13;99926.56;;;10.25;62.00
61205;BME280;47068;55.780;37.520;2022-09-13T02:54:48;99916.44;;;10.11;61.79
61205;BME280;47068;55.780;37.520;2022-09-13T02:57:29;99927.22;;;10.10;61.79
61205;BME280;47068;55.780;37.520;2022-09-13T02:59:57;99907.56;;;10.03;62.26
61205;BME280;47068;55.780;37.520;2022-09-13T03:02:27;99930.00;;;10.18;62.02
61205;BME280;47068;55.780;37.520;2022-09-13T03:04:57;99923.75;;;10.27;61.65
61205;BME280;47068;55.780;37.520;2022-09-13T03:07:23;99925.09;;;10.31;61.22
61205;BME280;47068;55.780;37.520;2022-09-13T03:09:54;99883.00;;;10.01;61.60
61205;BME280;47068;55.780;37.520;2022-09-13T03:15:10;99921.00;;;10.37;61.19
61205;BME280;47068;55.780;37.520;2022-09-13T03:18:04;99911.22;;;10.45;61.13
61205;BME280;47068;55.780;37.520;2022-09-13T03:26:23;99900.13;;;10.58;59.97
61205;BME280;47068;55.780;37.520;2022-09-13T03:36:43;99905.53;;;10.40;60.64
61205;BME280;47068;55.780;37.520;2022-09-13T03:41:42;99884.63;;;10.19;61.03
61205;BME280;47068;55.780;37.520;2022-09-13T03:44:11;99888.44;;;10.17;60.79
61205;BME280;47068;55.780;37.520;2022-09-13T03:46:48;99914.16;;;10.34;61.25
61205;BME280;47068;55.780;37.520;2022-09-13T03:49:16;99905.75;;;10.47;60.70
61205;BME280;47068;55.780;37.520;2022-09-13T03:51:48;99910.28;;;10.54;60.27
61205;BME280;47068;55.780;37.520;2022-09-13T03:54:23;99884.25;;;10.40;60.62
61205;BME280;47068;55.780;37.520;2022-09-13T03:59:34;99904.16;;;10.62;60.02
61205;BME280;47068;55.780;37.520;2022-09-13T04:02:02;99903.81;;;10.57;59.93
61205;BME280;47068;55.780;37.520;2022-09-13T04:04:28;99893.44;;;10.46;60.69
61205;BME280;47068;55.780;37.520;2022-09-13T04:06:53;99897.66;;;10.56;60.46
61205;BME280;47068;55.780;37.520;2022-09-13T04:09:20;99891.75;;;10.71;60.13
61205;BME280;47068;55.780;37.520;2022-09-13T04:11:46;99891.41;;;10.74;59.79
61205;BME280;47068;55.780;37.520;2022-09-13T04:14:12;99893.59;;;10.78;59.75
61205;BME280;47068;55.780;37.520;2022-09-13T04:16:37;99878.84;;;10.92;59.61
61205;BME280;47068;55.780;37.520;2022-09-13T04:19:03;99866.69;;;10.89;59.21
61205;BME280;47068;55.780;37.520;2022-09-13T04:21:31;99883.84;;;11.03;58.65
61205;BME280;47068;55.780;37.520;2022-09-13T04:23:56;99872.22;;;11.04;58.68
61205;BME280;47068;55.780;37.520;2022-09-13T04:26:21;99886.72;;;11.18;58.20
61205;BME280;47068;55.780;37.520;2022-09-13T04:28:47;99893.53;;;11.20;58.54
61205;BME280;47068;55.780;37.520;2022-09-13T04:31:12;99889.22;;;11.27;58.26
61205;BME280;47068;55.780;37.520;2022-09-13T04:33:38;99874.91;;;11.28;57.55
61205;BME280;47068;55.780;37.520;2022-09-13T04:36:03;99896.75;;;11.48;57.12
61205;BME280;47068;55.780;37.520;2022-09-13T04:38:29;99902.59;;;11.43;56.96
61205;BME280;47068;55.780;37.520;2022-09-13T04:40:56;99901.91;;;11.50;57.47
61205;BME280;47068;55.780;37.520;2022-09-13T04:43:22;99905.56;;;11.49;57.20
61205;BME280;47068;55.780;37.520;2022-09-13T04:45:48;99875.25;;;11.41;56.94
61205;BME280;47068;55.780;37.520;2022-09-13T04:48:14;99871.31;;;11.54;56.92
61205;BME280;47068;55.780;37.520;2022-09-13T04:50:40;99899.50;;;11.80;56.41
61205;BME280;47068;55.780;37.520;2022-09-13T04:53:06;99899.50;;;11.89;56.46
61205;BME280;47068;55.780;37.520;2022-09-13T04:55:31;99900.81;;;11.93;55.75
61205;BME280;47068;55.780;37.520;2022-09-13T04:57:57;99908.81;;;11.84;56.51
61205;BME280;47068;55.780;37.520;2022-09-13T05:00:23;99914.66;;;11.80;56.26
61205;BME280;47068;55.780;37.520;2022-09-13T05:02:56;99900.16;;;11.74;56.77
61205;BME280;47068;55.780;37.520;2022-09-13T05:05:22;99882.13;;;11.60;56.42
61205;BME280;47068;55.780;37.520;2022-09-13T05:07:50;99906.31;;;11.75;57.07
61205;BME280;47068;55.780;37.520;2022-09-13T05:10:18;99903.94;;;11.72;56.88
61205;BME280;47068;55.780;37.520;2022-09-13T05:12:43;99909.59;;;11.69;57.15
61205;BME280;47068;55.780;37.520;2022-09-13T05:15:09;99899.44;;;11.72;56.87
61205;BME280;47068;55.780;37.520;2022-09-13T05:17:37;99905.66;;;11.81;57.02
61205;BME280;47068;55.780;37.520;2022-09-13T05:20:03;99908.28;;;11.73;56.99
61205;BME280;47068;55.780;37.520;2022-09-13T05:22:30;99906.63;;;11.72;56.61
61205;BME280;47068;55.780;37.520;2022-09-13T05:24:55;99870.63;;;11.52;57.23
61205;BME280;47068;55.780;37.520;2022-09-13T05:27:21;99901.16;;;11.81;56.03
61205;BME280;47068;55.780;37.520;2022-09-13T05:29:47;99907.50;;;11.80;56.61
61205;BME280;47068;55.780;37.520;2022-09-13T05:32:12;99794.34;;;11.10;56.79
61205;BME280;47068;55.780;37.520;2022-09-13T05:34:38;99903.28;;;11.70;56.61
61205;BME280;47068;55.780;37.520;2022-09-13T05:37:03;99904.28;;;11.61;57.12
61205;BME280;47068;55.780;37.520;2022-09-13T05:39:29;99912.75;;;11.56;57.53
61205;BME280;47068;55.780;37.520;2022-09-13T05:41:54;99910.59;;;11.52;57.39
61205;BME280;47068;55.780;37.520;2022-09-13T05:44:20;99909.59;;;11.53;57.73
61205;BME280;47068;55.780;37.520;2022-09-13T05:46:47;99906.44;;;11.57;57.90
61205;BME280;47068;55.780;37.520;2022-09-13T05:49:13;99901.94;;;11.66;57.04
61205;BME280;47068;55.780;37.520;2022-09-13T05:51:39;99909.16;;;11.81;56.82
61205;BME280;47068;55.780;37.520;2022-09-13T05:54:04;99910.63;;;11.84;56.50
61205;BME280;47068;55.780;37.520;2022-09-13T05:56:30;99908.97;;;11.83;56.08
61205;BME280;47068;55.780;37.520;2022-09-13T05:58:56;99908.31;;;11.81;56.49
61205;BME280;47068;55.780;37.520;2022-09-13T06:01:26;99905.47;;;11.82;56.74
61205;BME280;47068;55.780;37.520;2022-09-13T06:03:55;99922.31;;;11.91;56.54
61205;BME280;47068;55.780;37.520;2022-09-13T06:06:22;99874.81;;;11.78;56.07
61205;BME280;47068;55.780;37.520;2022-09-13T06:08:51;99902.97;;;11.97;56.18
61205;BME280;47068;55.780;37.520;2022-09-13T06:11:17;99880.00;;;11.88;55.72
61205;BME280;47068;55.780;37.520;2022-09-13T06:13:43;99900.78;;;12.17;55.91
61205;BME280;47068;55.780;37.520;2022-09-13T06:16:10;99904.09;;;12.27;55.52
61205;BME280;47068;55.780;37.520;2022-09-13T06:18:36;99904.78;;;12.29;54.84
61205;BME280;47068;55.780;37.520;2022-09-13T06:21:10;99901.94;;;12.31;55.26
61205;BME280;47068;55.780;37.520;2022-09-13T06:23:37;99903.28;;;12.18;54.58
61205;BME280;47068;55.780;37.520;2022-09-13T06:28:28;99907.31;;;11.98;55.74
61205;BME280;47068;55.780;37.520;2022-09-13T06:31:04;99900.50;;;11.96;55.79
61205;BME280;47068;55.780;37.520;2022-09-13T06:33:31;99890.31;;;11.91;55.16
61205;BME280;47068;55.780;37.520;2022-09-13T06:36:09;99912.31;;;12.09;55.87
61205;BME280;47068;55.780;37.520;2022-09-13T06:38:35;99910.44;;;12.18;55.43
61205;BME280;47068;55.780;37.520;2022-09-13T06:41:05;99901.28;;;12.29;55.33
61205;BME280;47068;55.780;37.520;2022-09-13T06:43:32;99901.22;;;12.45;54.25
61205;BME280;47068;55.780;37.520;2022-09-13T06:46:00;99867.22;;;12.39;54.21
61205;BME280;47068;55.780;37.520;2022-09-13T06:48:26;99899.34;;;12.61;53.58
61205;BME280;47068;55.780;37.520;2022-09-13T06:50:52;99903.50;;;12.64;54.06
61205;BME280;47068;55.780;37.520;2022-09-13T06:53:17;99902.16;;;12.68;54.18
61205;BME280;47068;55.780;37.520;2022-09-13T06:55:43;99874.66;;;12.59;53.49
61205;BME280;47068;55.780;37.520;2022-09-13T06:58:08;99894.44;;;12.81;53.52
61205;BME280;47068;55.780;37.520;2022-09-13T07:00:33;99845.13;;;12.61;53.11
61205;BME280;47068;55.780;37.520;2022-09-13T07:02:59;99886.38;;;12.89;53.44
61205;BME280;47068;55.780;37.520;2022-09-13T07:05:24;99895.66;;;13.01;53.13
61205;BME280;47068;55.780;37.520;2022-09-13T07:07:50;99889.00;;;13.06;53.06
61205;BME280;47068;55.780;37.520;2022-09-13T07:10:15;99881.19;;;12.96;52.48
61205;BME280;47068;55.780;37.520;2022-09-13T07:12:41;99848.75;;;12.76;53.16
61205;BME280;47068;55.780;37.520;2022-09-13T07:15:07;99875.97;;;13.02;52.26
61205;BME280;47068;55.780;37.520;2022-09-13T07:17:32;99877.78;;;13.10;52.06
61205;BME280;47068;55.780;37.520;2022-09-13T07:19:58;99882.94;;;13.20;52.80
61205;BME280;47068;55.780;37.520;2022-09-13T07:22:23;99859.19;;;13.25;52.05
61205;BME280;47068;55.780;37.520;2022-09-13T07:24:52;99870.28;;;13.36;51.88
61205;BME280;47068;55.780;37.520;2022-09-13T07:27:20;99869.41;;;13.44;51.06
61205;BME280;47068;55.780;37.520;2022-09-13T07:29:45;99881.69;;;13.53;51.88
61205;BME280;47068;55.780;37.520;2022-09-13T07:32:11;99862.28;;;13.59;51.32
61205;BME280;47068;55.780;37.520;2022-09-13T07:34:36;99863.09;;;13.83;50.72
61205;BME280;47068;55.780;37.520;2022-09-13T07:37:01;99864.25;;;14.03;50.84
61205;BME280;47068;55.780;37.520;2022-09-13T07:39:27;99818.09;;;13.86;50.23
61205;BME280;47068;55.780;37.520;2022-09-13T07:41:52;99858.44;;;14.29;50.28
61205;BME280;47068;55.780;37.520;2022-09-13T07:44:18;99859.31;;;14.58;49.38
61205;BME280;47068;55.780;37.520;2022-09-13T07:46:43;99858.66;;;14.86;48.67
61205;BME280;47068;55.780;37.520;2022-09-13T07:49:11;99853.47;;;15.20;47.56
61205;BME280;47068;55.780;37.520;2022-09-13T07:51:38;99852.66;;;15.84;46.13
61205;BME280;47068;55.780;37.520;2022-09-13T07:54:06;99846.84;;;16.36;44.69
61205;BME280;47068;55.780;37.520;2022-09-13T07:56:34;99845.69;;;18.06;42.21
61205;BME280;47068;55.780;37.520;2022-09-13T07:59:04;99840.97;;;19.86;37.66
61205;BME280;47068;55.780;37.520;2022-09-13T08:01:37;99827.75;;;20.21;35.79
61205;BME280;47068;55.780;37.520;2022-09-13T08:04:06;99793.94;;;19.44;36.45
61205;BME280;47068;55.780;37.520;2022-09-13T08:06:33;99809.66;;;19.54;36.79
61205;BME280;47068;55.780;37.520;2022-09-13T08:09:06;99814.81;;;19.62;37.05
61205;BME280;47068;55.780;37.520;2022-09-13T08:11:37;99823.25;;;18.45;37.57
61205;BME280;47068;55.780;37.520;2022-09-13T08:14:04;99824.78;;;17.82;38.93
61205;BME280;47068;55.780;37.520;2022-09-13T08:16:30;99821.66;;;17.65;39.53
61205;BME280;47068;55.780;37.520;2022-09-13T08:18:58;99759.31;;;17.09;39.13
61205;BME280;47068;55.780;37.520;2022-09-13T08:21:25;99818.06;;;17.12;40.40
61205;BME280;47068;55.780;37.520;2022-09-13T08:23:54;99786.94;;;16.76;40.62
61205;BME280;47068;55.780;37.520;2022-09-13T08:26:21;99804.66;;;16.64;41.12
61205;BME280;47068;55.780;37.520;2022-09-13T08:28:46;99803.41;;;16.67;41.04
61205;BME280;47068;55.780;37.520;2022-09-13T08:31:14;99804.47;;;16.66;41.06
61205;BME280;47068;55.780;37.520;2022-09-13T08:33:47;99816.34;;;16.50;41.25
61205;BME280;47068;55.780;37.520;2022-09-13T08:36:14;99811.25;;;16.62;41.32
61205;BME280;47068;55.780;37.520;2022-09-13T08:38:50;99815.50;;;16.90;40.93
61205;BME280;47068;55.780;37.520;2022-09-13T08:41:19;99812.16;;;16.82;40.79
61205;BME280;47068;55.780;37.520;2022-09-13T08:46:44;99803.94;;;16.90;45.34
61205;BME280;47068;55.780;37.520;2022-09-13T08:49:20;99796.00;;;16.34;41.78
61205;BME280;47068;55.780;37.520;2022-09-13T08:51:50;99793.16;;;16.01;42.62
61205;BME280;47068;55.780;37.520;2022-09-13T08:54:18;99793.78;;;16.38;45.09
61205;BME280;47068;55.780;37.520;2022-09-13T08:57:11;99788.44;;;16.44;43.07
61205;BME280;47068;55.780;37.520;2022-09-13T09:05:24;99766.78;;;17.07;41.39
61205;BME280;47068;55.780;37.520;2022-09-13T09:07:59;99759.53;;;17.01;41.52
61205;BME280;47068;55.780;37.520;2022-09-13T09:10:32;99728.25;;;16.80;40.92
61205;BME280;47068;55.780;37.520;2022-09-13T09:15:48;99757.88;;;17.06;41.55
61205;BME280;47068;55.780;37.520;2022-09-13T09:18:27;99750.66;;;17.40;40.66
61205;BME280;47068;55.780;37.520;2022-09-13T09:20:57;99743.44;;;17.66;39.10
61205;BME280;47068;55.780;37.520;2022-09-13T09:26:10;99744.00;;;17.09;41.35
61205;BME280;47068;55.780;37.520;2022-09-13T09:28:37;99740.72;;;17.14;40.28
61205;BME280;47068;55.780;37.520;2022-09-13T09:31:19;99745.47;;;17.05;39.93
61205;BME280;47068;55.780;37.520;2022-09-13T09:36:58;99745.06;;;16.54;39.38
61205;BME280;47068;55.780;37.520;2022-09-13T09:39:28;99729.75;;;16.41;39.55
61205;BME280;47068;55.780;37.520;2022-09-13T09:41:57;99732.56;;;16.27;40.20
61205;BME280;47068;55.780;37.520;2022-09-13T09:44:26;99715.13;;;16.03;40.37
61205;BME280;47068;55.780;37.520;2022-09-13T09:50:15;99726.47;;;16.05;40.66
61205;BME280;47068;55.780;37.520;2022-09-13T09:52:52;99693.16;;;15.86;41.42
61205;BME280;47068;55.780;37.520;2022-09-13T09:55:55;99715.38;;;16.14;41.56
61205;BME280;47068;55.780;37.520;2022-09-13T09:58:37;99724.97;;;16.30;41.11
61205;BME280;47068;55.780;37.520;2022-09-13T10:01:03;99702.38;;;16.18;40.88
61205;BME280;47068;55.780;37.520;2022-09-13T10:03:32;99709.28;;;16.40;41.38
61205;BME280;47068;55.780;37.520;2022-09-13T10:06:05;99708.13;;;16.56;40.44
61205;BME280;47068;55.780;37.520;2022-09-13T10:08:34;99710.16;;;16.54;40.68
61205;BME280;47068;55.780;37.520;2022-09-13T10:11:01;99686.81;;;16.48;41.36
61205;BME280;47068;55.780;37.520;2022-09-13T10:13:28;99715.00;;;16.72;41.25
61205;BME280;47068;55.780;37.520;2022-09-13T10:16:05;99707.56;;;16.74;40.57
61205;BME280;47068;55.780;37.520;2022-09-13T10:18:33;99714.16;;;16.65;40.90
61205;BME280;47068;55.780;37.520;2022-09-13T10:23:47;99617.78;;;15.74;41.90
61205;BME280;47068;55.780;37.520;2022-09-13T10:26:17;99722.84;;;16.26;41.85
61205;BME280;47068;55.780;37.520;2022-09-13T10:28:59;99697.88;;;16.25;41.89
61205;BME280;47068;55.780;37.520;2022-09-13T10:31:34;99652.97;;;15.99;41.71
61205;BME280;47068;55.780;37.520;2022-09-13T10:34:04;99699.00;;;15.96;41.96
61205;BME280;47068;55.780;37.520;2022-09-13T10:36:34;99705.31;;;15.82;42.73
61205;BME280;47068;55.780;37.520;2022-09-13T10:39:07;99699.81;;;15.97;43.02
61205;BME280;47068;55.780;37.520;2022-09-13T10:41:39;99700.00;;;15.95;41.85
61205;BME280;47068;55.780;37.520;2022-09-13T10:46:50;99687.47;;;16.02;41.24
61205;BME280;47068;55.780;37.520;2022-09-13T10:52:25;99654.28;;;15.69;41.09
61205;BME280;47068;55.780;37.520;2022-09-13T10:54:52;99698.09;;;15.83;41.29
61205;BME280;47068;55.780;37.520;2022-09-13T10:57:35;99697.00;;;15.77;42.07
61205;BME280;47068;55.780;37.520;2022-09-13T11:00:05;99686.13;;;15.85;41.59
61205;BME280;47068;55.780;37.520;2022-09-13T11:05:15;99679.69;;;15.52;42.40
61205;BME280;47068;55.780;37.520;2022-09-13T11:15:43;99682.97;;;15.47;42.16
61205;BME280;47068;55.780;37.520;2022-09-13T11:18:22;99685.53;;;15.55;41.63
61205;BME280;47068;55.780;37.520;2022-09-13T11:45:28;99616.06;;;15.05;43.58
61205;BME280;47068;55.780;37.520;2022-09-13T11:48:19;99654.97;;;15.28;43.85
61205;BME280;47068;55.780;37.520;2022-09-13T11:56:24;99643.25;;;15.29;42.70
61205;BME280;47068;55.780;37.520;2022-09-13T11:58:57;99642.22;;;15.30;43.01
61205;BME280;47068;55.780;37.520;2022-09-13T12:01:40;99618.78;;;15.11;43.07
61205;BME280;47068;55.780;37.520;2022-09-13T12:04:32;99637.47;;;15.26;42.96
61205;BME280;47068;55.780;37.520;2022-09-13T12:07:01;99638.63;;;15.17;42.98
61205;BME280;47068;55.780;37.520;2022-09-13T12:09:33;99631.81;;;15.14;43.35
61205;BME280;47068;55.780;37.520;2022-09-13T12:12:10;99636.28;;;15.07;42.65
61205;BME280;47068;55.780;37.520;2022-09-13T12:14:54;99642.66;;;15.06;42.82
61205;BME280;47068;55.780;37.520;2022-09-13T12:17:28;99613.34;;;14.98;42.73
61205;BME280;47068;55.780;37.520;2022-09-13T12:20:01;99632.84;;;15.13;42.54
61205;BME280;47068;55.780;37.520;2022-09-13T12:22:31;99637.78;;;15.16;42.83
61205;BME280;47068;55.780;37.520;2022-09-13T12:25:02;99604.50;;;15.04;42.93
61205;BME280;47068;55.780;37.520;2022-09-13T12:27:38;99640.78;;;15.28;42.80
61205;BME280;47068;55.780;37.520;2022-09-13T12:30:15;99639.13;;;15.27;42.55
61205;BME280;47068;55.780;37.520;2022-09-13T12:32:43;99625.25;;;15.23;42.47
61205;BME280;47068;55.780;37.520;2022-09-13T12:35:27;99628.97;;;15.22;42.67
61205;BME280;47068;55.780;37.520;2022-09-13T12:38:20;99613.91;;;15.21;42.69
61205;BME280;47068;55.780;37.520;2022-09-13T12:41:25;99614.72;;;15.22;42.81
61205;BME280;47068;55.780;37.520;2022-09-13T12:49:40;99606.91;;;15.20;42.79
61205;BME280;47068;55.780;37.520;2022-09-13T12:52:25;99501.03;;;14.69;42.78
61205;BME280;47068;55.780;37.520;2022-09-13T13:00:21;99587.47;;;15.12;42.92
61205;BME280;47068;55.780;37.520;2022-09-13T13:05:25;99582.94;;;15.12;42.72
61205;BME280;47068;55.780;37.520;2022-09-13T13:08:00;99589.53;;;15.16;43.00
61205;BME280;47068;55.780;37.520;2022-09-13T13:10:35;99573.22;;;15.11;42.85
61205;BME280;47068;55.780;37.520;2022-09-13T13:13:28;99534.75;;;14.91;43.01
61205;BME280;47068;55.780;37.520;2022-09-13T13:15:58;99570.59;;;15.18;43.01
61205;BME280;47068;55.780;37.520;2022-09-13T13:18:30;99574.94;;;15.19;43.00
61205;BME280;47068;55.780;37.520;2022-09-13T13:23:28;99580.09;;;15.20;43.17
61205;BME280;47068;55.780;37.520;2022-09-13T13:34:00;99571.66;;;15.23;42.42
61205;BME280;47068;55.780;37.520;2022-09-13T13:38:55;99559.47;;;15.14;42.41
61205;BME280;47068;55.780;37.520;2022-09-13T13:46:51;99537.91;;;15.01;42.32
61205;BME280;47068;55.780;37.520;2022-09-13T14:00:17;99430.69;;;14.53;42.85
61205;BME280;47068;55.780;37.520;2022-09-13T14:11:22;99529.66;;;15.30;42.09
61205;BME280;47068;55.780;37.520;2022-09-13T14:19:28;99503.75;;;15.10;42.17
61205;BME280;47068;55.780;37.520;2022-09-13T14:22:16;99521.38;;;15.25;42.18
61205;BME280;47068;55.780;37.520;2022-09-13T14:24:51;99526.94;;;15.24;42.34
61205;BME280;47068;55.780;37.520;2022-09-13T14:27:29;99522.41;;;15.24;42.35
61205;BME280;47068;55.780;37.520;2022-09-13T14:30:04;99526.09;;;15.23;42.57
61205;BME280;47068;55.780;37.520;2022-09-13T14:32:41;99539.50;;;15.23;42.84
61205;BME280;47068;55.780;37.520;2022-09-13T14:37:48;99544.63;;;15.18;42.52
61205;BME280;47068;55.780;37.520;2022-09-13T14:40:21;99517.78;;;15.12;42.71
61205;BME280;47068;55.780;37.520;2022-09-13T14:42:49;99534.06;;;15.10;42.69
61205;BME280;47068;55.780;37.520;2022-09-13T14:45:19;99532.19;;;15.04;43.06
61205;BME280;47068;55.780;37.520;2022-09-13T14:50:27;99523.94;;;15.06;43.31
61205;BME280;47068;55.780;37.520;2022-09-13T14:53:15;99526.44;;;15.07;43.10
61205;BME280;47068;55.780;37.520;2022-09-13T14:55:45;99525.16;;;15.03;43.22
61205;BME280;47068;55.780;37.520;2022-09-13T14:58:23;99526.44;;;15.07;43.06
61205;BME280;47068;55.780;37.520;2022-09-13T15:00:58;99522.25;;;14.98;43.16
61205;BME280;47068;55.780;37.520;2022-09-13T15:03:25;99527.97;;;14.95;43.63
61205;BME280;47068;55.780;37.520;2022-09-13T15:05:56;99519.34;;;14.93;43.43
61205;BME280;47068;55.780;37.520;2022-09-13T15:10:58;99525.72;;;14.92;43.65
61205;BME280;47068;55.780;37.520;2022-09-13T15:13:24;99527.09;;;14.88;43.71
61205;BME280;47068;55.780;37.520;2022-09-13T15:15:50;99458.69;;;14.51;43.86
61205;BME280;47068;55.780;37.520;2022-09-13T15:21:04;99517.22;;;14.88;43.84
61205;BME280;47068;55.780;37.520;2022-09-13T15:23:47;99514.34;;;14.90;43.99
61205;BME280;47068;55.780;37.520;2022-09-13T15:26:22;99520.09;;;14.87;43.96
61205;BME280;47068;55.780;37.520;2022-09-13T15:28:56;99511.44;;;14.85;43.92
61205;BME280;47068;55.780;37.520;2022-09-13T15:31:32;99502.97;;;14.81;44.41
61205;BME280;47068;55.780;37.520;2022-09-13T15:36:43;99507.47;;;14.81;44.56
61205;BME280;47068;55.780;37.520;2022-09-13T15:41:38;99507.75;;;14.86;44.48
61205;BME280;47068;55.780;37.520;2022-09-13T15:44:05;99503.56;;;14.77;44.11
61205;BME280;47068;55.780;37.520;2022-09-13T15:46:54;99512.22;;;14.79;44.14
61205;BME280;47068;55.780;37.520;2022-09-13T15:49:23;99503.09;;;14.73;44.55
61205;BME280;47068;55.780;37.520;2022-09-13T15:51:55;99503.31;;;14.72;44.81
61205;BME280;47068;55.780;37.520;2022-09-13T15:54:21;99498.94;;;14.64;44.81
61205;BME280;47068;55.780;37.520;2022-09-13T15:56:49;99502.22;;;14.66;44.88
61205;BME280;47068;55.780;37.520;2022-09-13T15:59:20;99499.38;;;14.68;45.24
61205;BME280;47068;55.780;37.520;2022-09-13T16:01:50;99489.88;;;14.65;45.09
61205;BME280;47068;55.780;37.520;2022-09-13T16:04:16;99453.66;;;14.41;45.06
61205;BME280;47068;55.780;37.520;2022-09-13T16:06:43;99484.53;;;14.65;45.21
61205;BME280;47068;55.780;37.520;2022-09-13T16:09:17;99488.22;;;14.64;45.55
61205;BME280;47068;55.780;37.520;2022-09-13T16:11:43;99486.75;;;14.62;45.46
61205;BME280;47068;55.780;37.520;2022-09-13T16:14:09;99493.13;;;14.61;45.72
61205;BME280;47068;55.780;37.520;2022-09-13T16:16:35;99487.97;;;14.59;46.01
61205;BME280;47068;55.780;37.520;2022-09-13T16:19:00;99483.00;;;14.56;46.71
61205;BME280;47068;55.780;37.520;2022-09-13T16:21:26;99489.38;;;14.55;47.25
61205;BME280;47068;55.780;37.520;2022-09-13T16:23:51;99464.56;;;14.40;47.26
61205;BME280;47068;55.780;37.520;2022-09-13T16:26:17;99472.84;;;14.45;47.76